Deepwater, New Jersey
Current Conditions -  °F | °C
As of 2:51 AM on Saturday 20 Dec 2014 (Local Time) from KILG Reporting Station
Overcast Overcast  
Wind Chill: 31°   Ceiling: 3500
Heat Index: 31°   Visibility: 10mi
Dew Point: 23°   Wind: 3mph
Humidity: 72%   Direction: 290°WNW
Pressure: 30.23"   Gusts: NA
Location:  39.68°N, 75.49°W
Report Text: KILG 200751Z 29003KT 10SM OVC035 M01/M05 A3023 RMK AO2 SLP238 T10061050
Loading
Personal Weather Stations






























Interactive Weather Map New forecast layout! Learn more

10-Day Weather Forecast

Advertisements
Track Severe Weather on mobile